Time;durP1;ratioP1;P1;durP2;ratioP2;P2;SDS_P1;SDS_P2;PMS_P1;PMS_P2;Temp;Humidity;BMP_temperature;BMP_pressure;BME280_temperature;BME280_humidity;BME280_pressure;Samples;Min_cycle;Max_cycle;Signal;HPM_P1;HPM_P2
2021/07/13 00:00:37;;;;;;;;;;;18.60;99.90;;;;;;4934806;29;20466;-75
2021/07/13 00:03:09;;;;;;;;;;;18.60;99.90;;;;;;4933026;29;20041;-75
2021/07/13 00:05:41;;;;;;;;;;;18.60;99.90;;;;;;4933715;29;19927;-75
2021/07/13 00:08:07;;;;;;;;;;;18.60;99.90;;;;;;4917979;29;20413;-75
2021/07/13 00:10:40;;;;;;;;;;;18.60;99.90;;;;;;4933657;29;20033;-75
2021/07/13 00:13:07;;;;;;;;;;;18.50;99.90;;;;;;4933403;29;20378;-75
2021/07/13 00:15:40;;;;;;;;;;;18.50;99.90;;;;;;4918467;29;20029;-75
2021/07/13 00:18:07;;;;;;;;;;;18.40;99.90;;;;;;4917680;29;20377;-75
2021/07/13 00:20:34;;;;;;;;;;;18.30;99.90;;;;;;4933549;29;19954;-75
2021/07/13 00:23:05;;;;;;;;;;;18.30;99.90;;;;;;4933000;29;19981;-75
2021/07/13 00:25:32;;;;;;;;;;;18.40;99.90;;;;;;4917608;29;20038;-75
2021/07/13 00:28:05;;;;;;;;;;;18.50;99.90;;;;;;4933485;29;19970;-75
2021/07/13 00:30:31;;;;;;;;;;;18.50;99.90;;;;;;4933477;29;20305;-76
2021/07/13 00:33:03;;;;;;;;;;;18.50;99.90;;;;;;4918167;29;19927;-75
2021/07/13 00:35:35;;;;;;;;;;;18.50;99.90;;;;;;4934902;29;20039;-75
2021/07/13 00:38:01;;;;;;;;;;;18.50;99.90;;;;;;4921175;29;20025;-75
2021/07/13 00:40:28;;;;;;;;;;;18.50;99.90;;;;;;4936908;29;20476;-75
2021/07/13 00:43:00;;;;;;;;;;;18.50;99.90;;;;;;4936719;29;20194;-75
2021/07/13 00:45:32;;;;;;;;;;;18.60;99.90;;;;;;4937025;29;20017;-75
2021/07/13 00:48:05;;;;;;;;;;;18.50;99.90;;;;;;4937167;29;20041;-76
2021/07/13 00:50:37;;;;;;;;;;;18.50;99.90;;;;;;4936745;29;20022;-75
2021/07/13 00:53:03;;;;;;;;;;;18.40;99.90;;;;;;4936603;29;19935;-75
2021/07/13 00:55:35;;;;;;;;;;;18.30;99.90;;;;;;4921648;29;19931;-75
2021/07/13 00:58:05;;;;;;;;;;;18.20;99.90;;;;;;4936318;29;20017;-75
2021/07/13 01:00:32;;;;;;;;;;;18.00;99.90;;;;;;4936042;29;19976;-75
2021/07/13 01:03:04;;;;;;;;;;;17.90;99.90;;;;;;4935713;29;19926;-75
2021/07/13 01:05:43;;;;;;;;;;;17.60;99.90;;;;;;4935938;29;20033;-75
2021/07/13 01:08:16;;;;;;;;;;;17.50;99.90;;;;;;4936444;29;20147;-75
2021/07/13 01:10:51;;;;;;;;;;;17.60;99.90;;;;;;4920882;29;20033;-75
2021/07/13 01:13:22;;;;;;;;;;;17.70;99.90;;;;;;4921034;29;19933;-75
2021/07/13 01:15:51;;;;;;;;;;;17.80;99.90;;;;;;4920393;29;19966;-75
2021/07/13 01:18:24;;;;;;;;;;;17.80;99.90;;;;;;4936139;29;20580;-75
2021/07/13 01:21:14;;;;;;;;;;;17.90;99.90;;;;;;4920685;29;20382;-75
2021/07/13 01:23:52;;;;;;;;;;;17.90;99.90;;;;;;4936837;29;20334;-75
2021/07/13 01:26:39;;;;;;;;;;;18.00;99.90;;;;;;4935537;29;19927;-75
2021/07/13 01:29:09;;;;;;;;;;;18.00;99.90;;;;;;4919780;29;19989;-75
2021/07/13 01:31:43;;;;;;;;;;;18.00;99.90;;;;;;4920491;29;19926;-76
2021/07/13 01:34:28;;;;;;;;;;;18.00;99.90;;;;;;4935973;29;20030;-75
2021/07/13 01:36:56;;;;;;;;;;;18.00;99.90;;;;;;4936002;29;20013;-75
2021/07/13 01:39:24;;;;;;;;;;;18.10;99.90;;;;;;4935946;29;19927;-75
2021/07/13 01:41:53;;;;;;;;;;;18.00;99.90;;;;;;4935590;29;20038;-75
2021/07/13 01:44:20;;;;;;;;;;;18.10;99.90;;;;;;4935822;29;19969;-75
2021/07/13 01:46:52;;;;;;;;;;;18.10;99.90;;;;;;4919310;29;19927;-75
2021/07/13 01:49:25;;;;;;;;;;;18.10;99.90;;;;;;4920720;29;20274;-75
2021/07/13 01:51:53;;;;;;;;;;;18.10;99.90;;;;;;4935649;29;20029;-75
2021/07/13 01:54:25;;;;;;;;;;;18.00;99.90;;;;;;4920559;29;19933;-75
2021/07/13 01:56:58;;;;;;;;;;;17.70;99.90;;;;;;4935762;29;19927;-75
2021/07/13 01:59:30;;;;;;;;;;;17.60;99.90;;;;;;4936337;29;20033;-75
2021/07/13 02:02:02;;;;;;;;;;;17.50;99.90;;;;;;4935552;29;19937;-75
2021/07/13 02:04:30;;;;;;;;;;;17.60;99.90;;;;;;4935619;29;20022;-75
2021/07/13 02:06:59;;;;;;;;;;;17.60;99.90;;;;;;4935400;29;20029;-75
2021/07/13 02:09:25;;;;;;;;;;;17.70;99.90;;;;;;4935370;29;19962;-75
2021/07/13 02:11:53;;;;;;;;;;;17.70;99.90;;;;;;4919320;29;20013;-75
2021/07/13 02:14:19;;;;;;;;;;;17.70;99.90;;;;;;4935242;29;19973;-75
2021/07/13 02:16:46;;;;;;;;;;;17.80;99.90;;;;;;4936550;29;20017;-75
2021/07/13 02:19:18;;;;;;;;;;;17.80;99.90;;;;;;4920038;29;19926;-75
2021/07/13 02:21:50;;;;;;;;;;;17.90;99.90;;;;;;4934801;29;20065;-75
2021/07/13 02:24:16;;;;;;;;;;;17.90;99.90;;;;;;4935144;29;19985;-75
2021/07/13 02:26:54;;;;;;;;;;;17.90;99.90;;;;;;4936259;29;19930;-75
2021/07/13 02:29:27;;;;;;;;;;;17.80;99.90;;;;;;4935036;29;20021;-75
2021/07/13 02:32:05;;;;;;;;;;;17.70;99.90;;;;;;4919712;29;20051;-75
2021/07/13 02:34:35;;;;;;;;;;;17.70;99.90;;;;;;4934889;29;19974;-75
2021/07/13 02:37:03;;;;;;;;;;;17.60;99.90;;;;;;4934963;29;19927;-75
2021/07/13 02:39:30;;;;;;;;;;;17.50;99.90;;;;;;4919125;29;20025;-75
2021/07/13 02:41:58;;;;;;;;;;;17.40;99.90;;;;;;4934685;29;20365;-75
2021/07/13 02:44:32;;;;;;;;;;;17.40;99.90;;;;;;4934599;29;19926;-75
2021/07/13 02:47:02;;;;;;;;;;;17.30;99.90;;;;;;4934186;29;20033;-75
2021/07/13 02:49:30;;;;;;;;;;;17.30;99.90;;;;;;4934637;29;20022;-75
2021/07/13 02:52:03;;;;;;;;;;;17.30;99.90;;;;;;4934310;29;20025;-75
2021/07/13 02:54:30;;;;;;;;;;;17.20;99.90;;;;;;4934275;29;20041;-75
2021/07/13 02:56:59;;;;;;;;;;;17.20;99.90;;;;;;4934590;29;19966;-75
2021/07/13 02:59:28;;;;;;;;;;;17.30;99.90;;;;;;4934020;29;19962;-75
2021/07/13 03:02:00;;;;;;;;;;;17.20;99.90;;;;;;4919001;29;19962;-75
2021/07/13 03:04:26;;;;;;;;;;;17.20;99.90;;;;;;4918506;29;19930;-75
2021/07/13 03:06:53;;;;;;;;;;;17.20;99.90;;;;;;4934263;29;20308;-75
2021/07/13 03:09:20;;;;;;;;;;;17.20;99.90;;;;;;4934313;29;19934;-75
2021/07/13 03:11:47;;;;;;;;;;;17.20;99.90;;;;;;4933973;29;19962;-75
2021/07/13 03:14:19;;;;;;;;;;;17.20;99.90;;;;;;4919030;29;19966;-75
2021/07/13 03:16:51;;;;;;;;;;;17.20;99.90;;;;;;4934183;29;19926;-75
2021/07/13 03:19:18;;;;;;;;;;;17.20;99.90;;;;;;4934290;29;20017;-75
2021/07/13 03:21:50;;;;;;;;;;;17.20;99.90;;;;;;4933686;29;20382;-75
2021/07/13 03:24:23;;;;;;;;;;;17.20;99.90;;;;;;4918982;29;19974;-74
2021/07/13 03:26:50;;;;;;;;;;;17.20;99.90;;;;;;4918391;29;20374;-75
2021/07/13 03:29:17;;;;;;;;;;;17.20;99.90;;;;;;4933955;29;19926;-75
2021/07/13 03:31:49;;;;;;;;;;;17.20;99.90;;;;;;4933775;29;19931;-74
2021/07/13 03:34:16;;;;;;;;;;;17.20;99.90;;;;;;4933699;29;20353;-75
2021/07/13 03:36:48;;;;;;;;;;;17.20;99.90;;;;;;4919039;29;19931;-75
2021/07/13 03:39:15;;;;;;;;;;;17.20;99.90;;;;;;4918320;29;20512;-75
2021/07/13 03:41:42;;;;;;;;;;;17.20;99.90;;;;;;4933529;29;19930;-75
2021/07/13 03:44:14;;;;;;;;;;;17.30;99.90;;;;;;4933738;29;20361;-75
2021/07/13 03:46:46;;;;;;;;;;;17.30;99.90;;;;;;4933718;29;20442;-75
2021/07/13 03:49:12;;;;;;;;;;;17.30;99.90;;;;;;4933639;29;19931;-75
2021/07/13 03:51:45;;;;;;;;;;;17.30;99.90;;;;;;4917855;29;19974;-75
2021/07/13 03:54:13;;;;;;;;;;;17.30;99.90;;;;;;4934461;29;19926;-75
2021/07/13 03:56:41;;;;;;;;;;;17.30;99.90;;;;;;4917319;29;19931;-75
2021/07/13 03:59:08;;;;;;;;;;;17.30;99.90;;;;;;4934274;29;19927;-74
2021/07/13 04:01:35;;;;;;;;;;;17.40;99.90;;;;;;4932773;29;19991;-75
2021/07/13 04:04:07;;;;;;;;;;;17.40;99.90;;;;;;4917912;29;19927;-75
2021/07/13 04:06:39;;;;;;;;;;;17.40;99.90;;;;;;4917900;29;19926;-74
2021/07/13 04:09:11;;;;;;;;;;;17.50;99.90;;;;;;4934224;29;20319;-76
2021/07/13 04:11:37;;;;;;;;;;;17.50;99.90;;;;;;4915874;29;19985;-73
2021/07/13 04:14:05;;;;;;;;;;;17.50;99.90;;;;;;4920442;29;20381;-75
2021/07/13 04:16:37;;;;;;;;;;;17.50;99.90;;;;;;4908798;29;19937;-75
2021/07/13 04:19:09;;;;;;;;;;;17.50;99.90;;;;;;4902638;29;20286;-75
2021/07/13 04:21:35;;;;;;;;;;;17.50;99.90;;;;;;4920787;29;19927;-75
2021/07/13 04:24:02;;;;;;;;;;;17.50;99.90;;;;;;4935755;29;20449;-75
2021/07/13 04:26:29;;;;;;;;;;;17.50;99.90;;;;;;4937034;29;19930;-75
2021/07/13 04:28:55;;;;;;;;;;;17.50;99.90;;;;;;4935302;29;19927;-75
2021/07/13 04:31:22;;;;;;;;;;;17.50;99.90;;;;;;4935281;29;20370;-75
2021/07/13 04:33:54;;;;;;;;;;;17.50;99.90;;;;;;4921039;29;19926;-75
2021/07/13 04:36:21;;;;;;;;;;;17.50;99.90;;;;;;4936339;29;19926;-77
2021/07/13 04:38:47;;;;;;;;;;;17.50;99.90;;;;;;4936037;29;19973;-75
2021/07/13 04:41:14;;;;;;;;;;;17.60;99.90;;;;;;4919925;29;19926;-75
2021/07/13 04:43:46;;;;;;;;;;;17.50;99.90;;;;;;4921081;29;19978;-74
2021/07/13 04:46:12;;;;;;;;;;;17.50;99.90;;;;;;4936249;29;20445;-75
2021/07/13 04:48:39;;;;;;;;;;;17.50;99.90;;;;;;4935667;29;20247;-74
2021/07/13 04:51:11;;;;;;;;;;;17.50;99.90;;;;;;4917077;29;20472;-75
2021/07/13 04:53:37;;;;;;;;;;;17.50;99.90;;;;;;4932602;29;19927;-74
2021/07/13 04:56:09;;;;;;;;;;;17.50;99.90;;;;;;4936140;29;19933;-75
2021/07/13 04:58:35;;;;;;;;;;;17.50;99.90;;;;;;4917346;29;20026;-75
2021/07/13 05:01:07;;;;;;;;;;;17.50;99.90;;;;;;4917770;29;20309;-75
2021/07/13 05:03:34;;;;;;;;;;;17.50;99.90;;;;;;4919618;29;20300;-75
2021/07/13 05:06:01;;;;;;;;;;;17.60;99.90;;;;;;4949524;29;20473;-75
2021/07/13 05:08:27;;;;;;;;;;;17.60;99.90;;;;;;4938756;29;19937;-75
2021/07/13 05:10:54;;;;;;;;;;;17.70;99.90;;;;;;4937932;29;20021;-74
2021/07/13 05:13:25;;;;;;;;;;;17.70;99.90;;;;;;4921096;29;20424;-75
2021/07/13 05:15:52;;;;;;;;;;;17.80;99.90;;;;;;4919850;29;19966;-74
2021/07/13 05:18:24;;;;;;;;;;;17.80;99.90;;;;;;4920608;29;19934;-75
2021/07/13 05:21:02;;;;;;;;;;;17.90;99.90;;;;;;4934760;29;20389;-75
2021/07/13 05:23:28;;;;;;;;;;;17.90;99.90;;;;;;4935577;29;20445;-74
2021/07/13 05:26:00;;;;;;;;;;;17.90;99.90;;;;;;4920363;29;20445;-74
2021/07/13 05:28:27;;;;;;;;;;;18.00;99.90;;;;;;4935504;29;20062;-74
2021/07/13 05:30:53;;;;;;;;;;;18.00;99.90;;;;;;4935225;29;20017;-75
2021/07/13 05:33:20;;;;;;;;;;;18.10;99.90;;;;;;4936368;29;19981;-75
2021/07/13 05:35:52;;;;;;;;;;;18.10;99.90;;;;;;4935600;29;19931;-74
2021/07/13 05:38:24;;;;;;;;;;;18.20;99.90;;;;;;4935190;29;19927;-75
2021/07/13 05:40:50;;;;;;;;;;;18.20;99.90;;;;;;4935166;29;19933;-75
2021/07/13 05:43:17;;;;;;;;;;;18.20;99.90;;;;;;4934702;29;19981;-75
2021/07/13 05:45:49;;;;;;;;;;;18.20;99.90;;;;;;4930261;29;20477;-75
2021/07/13 05:48:15;;;;;;;;;;;18.10;99.90;;;;;;4929145;29;20021;-75
2021/07/13 05:50:42;;;;;;;;;;;18.20;99.90;;;;;;4934903;29;19931;-74
2021/07/13 05:53:14;;;;;;;;;;;18.10;99.90;;;;;;4934982;29;19933;-74
2021/07/13 05:55:46;;;;;;;;;;;18.10;99.90;;;;;;4919594;29;20017;-74
2021/07/13 05:58:13;;;;;;;;;;;18.20;99.90;;;;;;4932867;29;20369;-74
2021/07/13 06:00:41;;;;;;;;;;;18.10;99.90;;;;;;4932232;29;19958;-74
2021/07/13 06:03:08;;;;;;;;;;;18.10;99.90;;;;;;4932041;29;20354;-74
2021/07/13 06:05:39;;;;;;;;;;;18.10;99.90;;;;;;4916848;29;19933;-74
2021/07/13 06:08:11;;;;;;;;;;;18.10;99.90;;;;;;4931413;29;19927;-74
2021/07/13 06:10:38;;;;;;;;;;;18.20;99.90;;;;;;4933541;29;20833;-74
2021/07/13 06:13:09;;;;;;;;;;;18.20;99.90;;;;;;4933367;29;20018;-74
2021/07/13 06:15:41;;;;;;;;;;;18.30;99.90;;;;;;4930606;29;20017;-74
2021/07/13 06:18:08;;;;;;;;;;;18.30;99.90;;;;;;4940293;29;19930;-74
2021/07/13 06:20:35;;;;;;;;;;;18.30;99.90;;;;;;4955133;29;19926;-75
2021/07/13 06:23:02;;;;;;;;;;;18.30;99.90;;;;;;4954002;28;20323;-74
2021/07/13 06:25:33;;;;;;;;;;;18.40;99.90;;;;;;4954592;29;20005;-74
2021/07/13 06:28:00;;;;;;;;;;;18.50;99.90;;;;;;4953686;29;20025;-74
2021/07/13 06:30:33;;;;;;;;;;;18.50;99.90;;;;;;4954166;29;19930;-74
2021/07/13 06:33:00;;;;;;;;;;;18.50;99.90;;;;;;4937009;28;20029;-74
2021/07/13 06:35:32;;;;;;;;;;;18.60;99.90;;;;;;4955162;29;20017;-74
2021/07/13 06:38:05;;;;;;;;;;;18.60;99.90;;;;;;4938749;29;20464;-74
2021/07/13 06:40:32;;;;;;;;;;;18.60;99.90;;;;;;4954813;28;19969;-74
2021/07/13 06:43:00;;;;;;;;;;;18.70;99.90;;;;;;4921047;28;21755;-74
2021/07/13 06:45:27;;;;;;;;;;;18.70;99.90;;;;;;4953423;29;20394;-74
2021/07/13 06:47:59;;;;;;;;;;;18.60;99.90;;;;;;4954244;29;19926;-74
2021/07/13 06:50:30;;;;;;;;;;;18.60;99.90;;;;;;4938048;29;20033;-74
2021/07/13 06:53:02;;;;;;;;;;;18.60;99.90;;;;;;4930705;29;20505;-74
2021/07/13 06:55:30;;;;;;;;;;;18.70;99.90;;;;;;4914840;29;20025;-74
2021/07/13 06:57:56;;;;;;;;;;;18.70;99.90;;;;;;4914981;29;20365;-74
2021/07/13 07:00:23;;;;;;;;;;;18.80;99.90;;;;;;4899327;29;19927;-74
2021/07/13 07:02:49;;;;;;;;;;;18.80;99.90;;;;;;4915533;29;20021;-74
2021/07/13 07:05:21;;;;;;;;;;;18.90;99.90;;;;;;4914676;29;19927;-74
2021/07/13 07:07:48;;;;;;;;;;;18.90;99.90;;;;;;4914936;29;20103;-74
2021/07/13 07:10:20;;;;;;;;;;;18.90;99.90;;;;;;4915061;29;20386;-74
2021/07/13 07:12:52;;;;;;;;;;;18.90;99.90;;;;;;4913694;29;19927;-74
2021/07/13 07:15:24;;;;;;;;;;;18.90;99.90;;;;;;4899365;29;20050;-74
2021/07/13 07:17:55;;;;;;;;;;;18.90;99.90;;;;;;4914819;29;20021;-75
2021/07/13 07:20:28;;;;;;;;;;;18.90;99.90;;;;;;4914635;29;19927;-74
2021/07/13 07:22:55;;;;;;;;;;;18.90;99.90;;;;;;4914017;29;19927;-74
2021/07/13 07:25:22;;;;;;;;;;;19.00;99.90;;;;;;4898715;29;19959;-75
2021/07/13 07:27:50;;;;;;;;;;;19.00;99.90;;;;;;4914666;29;20026;-74
2021/07/13 07:30:22;;;;;;;;;;;19.00;99.90;;;;;;4914616;29;19927;-75
2021/07/13 07:32:49;;;;;;;;;;;19.00;99.90;;;;;;4914833;29;19993;-74
2021/07/13 07:35:21;;;;;;;;;;;19.10;99.90;;;;;;4898696;29;20124;-74
2021/07/13 07:37:52;;;;;;;;;;;19.20;99.90;;;;;;4899347;29;20046;-74
2021/07/13 07:40:27;;;;;;;;;;;19.10;99.90;;;;;;4914522;29;19933;-75
2021/07/13 07:42:58;;;;;;;;;;;19.30;99.90;;;;;;4914131;29;19931;-75
2021/07/13 07:45:30;;;;;;;;;;;19.30;99.90;;;;;;4914167;29;20031;-74
2021/07/13 07:48:03;;;;;;;;;;;19.40;99.90;;;;;;4914334;29;19927;-74
2021/07/13 07:50:34;;;;;;;;;;;19.30;99.90;;;;;;4915450;29;19958;-74
2021/07/13 07:53:01;;;;;;;;;;;19.30;99.90;;;;;;4914473;29;19970;-74
2021/07/13 07:55:28;;;;;;;;;;;19.30;99.90;;;;;;4913872;29;20772;-74
2021/07/13 07:57:55;;;;;;;;;;;19.30;99.90;;;;;;4914377;29;20083;-74
2021/07/13 08:00:27;;;;;;;;;;;19.40;99.90;;;;;;4914346;29;19927;-74
2021/07/13 08:02:53;;;;;;;;;;;19.40;99.90;;;;;;4913324;29;20022;-74
2021/07/13 08:05:26;;;;;;;;;;;19.30;99.90;;;;;;4915323;29;20029;-74
2021/07/13 08:07:58;;;;;;;;;;;19.30;99.90;;;;;;4914212;29;19937;-74
2021/07/13 08:10:30;;;;;;;;;;;19.40;99.90;;;;;;4899367;29;19927;-74
2021/07/13 08:13:03;;;;;;;;;;;19.40;99.90;;;;;;4898499;29;20017;-74
2021/07/13 08:15:35;;;;;;;;;;;19.40;99.90;;;;;;4914079;29;20022;-74
2021/07/13 08:18:06;;;;;;;;;;;19.40;99.90;;;;;;4915447;29;19933;-74
2021/07/13 08:20:38;;;;;;;;;;;19.50;99.90;;;;;;4899103;29;19950;-74
2021/07/13 08:23:10;;;;;;;;;;;19.50;99.90;;;;;;4915043;29;20025;-75
2021/07/13 08:25:36;;;;;;;;;;;19.50;99.90;;;;;;4914359;29;19959;-74
2021/07/13 08:28:08;;;;;;;;;;;19.60;99.90;;;;;;4899336;29;19931;-74
2021/07/13 08:30:40;;;;;;;;;;;19.70;99.90;;;;;;4899266;29;20022;-74
2021/07/13 08:33:06;;;;;;;;;;;19.90;99.90;;;;;;4913043;29;20133;-74
2021/07/13 08:35:38;;;;;;;;;;;20.10;99.90;;;;;;4913515;29;19931;-74
2021/07/13 08:38:05;;;;;;;;;;;20.30;99.90;;;;;;4898340;29;19937;-74
2021/07/13 08:40:32;;;;;;;;;;;20.40;99.90;;;;;;4913844;29;19970;-74
2021/07/13 08:42:59;;;;;;;;;;;20.40;99.90;;;;;;4913420;29;19931;-74
2021/07/13 08:45:31;;;;;;;;;;;20.30;99.90;;;;;;4914008;29;20021;-74
2021/07/13 08:48:03;;;;;;;;;;;20.20;99.90;;;;;;4913373;29;19927;-74
2021/07/13 08:50:36;;;;;;;;;;;20.10;99.90;;;;;;4914111;29;20398;-74
2021/07/13 08:53:03;;;;;;;;;;;20.10;99.90;;;;;;4913302;29;19989;-74
2021/07/13 08:55:34;;;;;;;;;;;19.90;99.90;;;;;;4898759;29;20454;-74
2021/07/13 08:58:10;;;;;;;;;;;19.80;99.90;;;;;;4907870;29;19986;-74
2021/07/13 09:00:37;;;;;;;;;;;19.80;99.90;;;;;;4936404;29;19927;-74
2021/07/13 09:03:10;;;;;;;;;;;19.70;99.90;;;;;;4920376;29;20025;-74
2021/07/13 09:05:43;;;;;;;;;;;19.60;99.90;;;;;;4936099;29;20412;-75
2021/07/13 09:08:10;;;;;;;;;;;19.60;99.90;;;;;;4936283;29;19969;-74
2021/07/13 09:10:37;;;;;;;;;;;19.50;99.90;;;;;;4936406;29;19978;-74
2021/07/13 09:13:04;;;;;;;;;;;19.30;99.90;;;;;;4935098;29;20010;-74
2021/07/13 09:15:37;;;;;;;;;;;18.60;99.90;;;;;;4936805;29;19926;-73
2021/07/13 09:18:08;;;;;;;;;;;18.10;99.90;;;;;;4936929;29;20022;-74
2021/07/13 09:20:40;;;;;;;;;;;17.80;99.90;;;;;;4935962;29;19969;-73
2021/07/13 09:23:08;;;;;;;;;;;17.60;99.90;;;;;;4936469;29;20022;-74
2021/07/13 09:25:41;;;;;;;;;;;17.50;99.90;;;;;;4937257;29;20297;-74
2021/07/13 09:28:34;;;;;;;;;;;17.30;99.90;;;;;;4920223;29;20009;-74
2021/07/13 09:31:00;;;;;;;;;;;17.10;99.90;;;;;;4933868;29;20009;-74
2021/07/13 09:33:32;;;;;;;;;;;17.00;99.90;;;;;;4934539;29;20030;-74
2021/07/13 09:36:11;;;;;;;;;;;16.90;99.90;;;;;;4920036;29;19993;-74
2021/07/13 09:38:39;;;;;;;;;;;16.80;99.90;;;;;;4937764;29;19970;-74
2021/07/13 09:41:06;;;;;;;;;;;16.80;99.90;;;;;;4935213;29;20444;-74
2021/07/13 09:43:53;;;;;;;;;;;16.70;99.90;;;;;;4936770;29;20009;-74
2021/07/13 09:46:33;;;;;;;;;;;16.70;99.90;;;;;;4936678;29;20391;-74
2021/07/13 09:49:05;;;;;;;;;;;16.60;99.90;;;;;;4920115;29;19938;-74
2021/07/13 09:51:37;;;;;;;;;;;16.40;99.90;;;;;;4936059;29;19927;-74
2021/07/13 09:54:23;;;;;;;;;;;16.40;99.90;;;;;;4934303;29;19989;-74
2021/07/13 09:56:50;;;;;;;;;;;16.30;99.90;;;;;;4935142;29;20349;-75
2021/07/13 09:59:22;;;;;;;;;;;16.20;99.90;;;;;;4920184;29;20025;-74
2021/07/13 10:01:49;;;;;;;;;;;16.10;99.90;;;;;;4934614;29;19931;-74
2021/07/13 10:04:21;;;;;;;;;;;16.00;99.90;;;;;;4934754;29;20457;-75
2021/07/13 10:06:54;;;;;;;;;;;15.90;99.90;;;;;;4919949;29;20025;-74
2021/07/13 10:09:29;;;;;;;;;;;15.80;99.90;;;;;;4934499;29;20010;-73
2021/07/13 10:12:01;;;;;;;;;;;15.70;99.90;;;;;;4935895;29;19972;-74
2021/07/13 10:14:33;;;;;;;;;;;15.60;99.90;;;;;;4933766;29;20586;-73
2021/07/13 10:17:07;;;;;;;;;;;15.60;99.90;;;;;;4934665;29;20496;-74
2021/07/13 10:19:47;;;;;;;;;;;15.40;99.90;;;;;;4934558;29;20017;-74
2021/07/13 10:22:20;;;;;;;;;;;15.40;99.90;;;;;;4934507;29;19977;-74
2021/07/13 10:24:54;;;;;;;;;;;15.30;99.90;;;;;;4919439;29;20485;-74
2021/07/13 10:27:27;;;;;;;;;;;15.40;99.90;;;;;;4919702;29;19985;-74
2021/07/13 10:29:56;;;;;;;;;;;15.40;99.90;;;;;;4934568;29;19970;-74
2021/07/13 10:32:27;;;;;;;;;;;15.40;99.90;;;;;;4918950;29;19927;-74
2021/07/13 10:35:23;;;;;;;;;;;15.40;99.90;;;;;;4933245;29;20402;-75
2021/07/13 10:37:56;;;;;;;;;;;15.40;99.90;;;;;;4934597;29;20022;-74
2021/07/13 10:40:27;;;;;;;;;;;15.40;99.90;;;;;;4935688;29;20037;-74
2021/07/13 10:42:55;;;;;;;;;;;15.30;99.90;;;;;;4918200;29;19962;-74
2021/07/13 10:45:30;;;;;;;;;;;15.30;99.90;;;;;;4919138;29;20370;-74
2021/07/13 10:48:06;;;;;;;;;;;15.10;99.90;;;;;;4919042;29;20386;-74
2021/07/13 10:50:38;;;;;;;;;;;15.10;99.90;;;;;;4934214;29;20334;-74
2021/07/13 10:53:25;;;;;;;;;;;15.00;99.90;;;;;;4933367;29;20057;-74
2021/07/13 10:55:54;;;;;;;;;;;14.90;99.90;;;;;;4925867;29;19975;-74
2021/07/13 10:58:26;;;;;;;;;;;14.90;99.90;;;;;;4902368;29;19973;-74
2021/07/13 11:01:02;;;;;;;;;;;14.90;99.90;;;;;;4917003;29;19962;-74
2021/07/13 11:03:29;;;;;;;;;;;14.80;99.90;;;;;;4899333;29;19967;-74
2021/07/13 11:06:04;;;;;;;;;;;14.70;99.90;;;;;;4902736;29;19934;-74
2021/07/13 11:08:44;;;;;;;;;;;14.70;99.90;;;;;;4928083;29;19934;-75
2021/07/13 11:11:19;;;;;;;;;;;14.70;99.90;;;;;;4923710;29;19927;-74
2021/07/13 11:13:45;;;;;;;;;;;14.70;99.90;;;;;;4916857;29;19926;-74
2021/07/13 11:16:13;;;;;;;;;;;14.70;99.90;;;;;;4932653;29;19927;-75
2021/07/13 11:18:45;;;;;;;;;;;14.70;99.90;;;;;;4933604;29;20041;-75
2021/07/13 11:21:20;;;;;;;;;;;14.70;99.90;;;;;;4915437;29;19927;-75
2021/07/13 11:23:48;;;;;;;;;;;14.60;99.90;;;;;;4898231;29;20311;-75
2021/07/13 11:26:15;;;;;;;;;;;14.50;99.90;;;;;;4898537;29;19927;-74
2021/07/13 11:28:48;;;;;;;;;;;14.50;99.90;;;;;;4899340;29;20010;-74
2021/07/13 11:31:21;;;;;;;;;;;14.50;99.90;;;;;;4914548;29;20290;-75
2021/07/13 11:33:58;;;;;;;;;;;14.40;99.90;;;;;;4914001;29;19997;-75
2021/07/13 11:36:35;;;;;;;;;;;14.30;99.90;;;;;;4914077;29;19975;-74
2021/07/13 11:39:08;;;;;;;;;;;14.20;99.90;;;;;;4914064;29;19927;-74
2021/07/13 11:41:41;;;;;;;;;;;14.30;99.90;;;;;;4898247;29;20384;-75
2021/07/13 11:44:09;;;;;;;;;;;14.30;99.90;;;;;;4923207;29;20492;-74
2021/07/13 11:46:36;;;;;;;;;;;14.30;99.90;;;;;;4916398;29;20018;-74
2021/07/13 11:49:07;;;;;;;;;;;14.30;99.90;;;;;;4915281;29;20390;-74
2021/07/13 11:51:35;;;;;;;;;;;14.20;99.90;;;;;;4920011;29;19937;-74
2021/07/13 11:54:15;;;;;;;;;;;14.20;99.90;;;;;;4912565;29;19927;-74
2021/07/13 11:56:47;;;;;;;;;;;14.20;99.90;;;;;;4951402;29;20448;-74
2021/07/13 11:59:15;;;;;;;;;;;14.20;99.90;;;;;;4925465;29;19966;-74
2021/07/13 12:01:52;;;;;;;;;;;14.20;99.90;;;;;;4932615;29;20013;-74
2021/07/13 12:04:25;;;;;;;;;;;14.20;99.90;;;;;;4920093;29;20017;-75
2021/07/13 12:06:53;;;;;;;;;;;14.30;99.90;;;;;;4950372;28;19930;-75
2021/07/13 12:09:29;;;;;;;;;;;14.30;99.90;;;;;;4936150;29;20381;-74
2021/07/13 12:11:57;;;;;;;;;;;14.30;99.90;;;;;;4952687;28;20456;-74
2021/07/13 12:14:28;;;;;;;;;;;14.30;99.90;;;;;;4936198;29;20341;-75
2021/07/13 12:16:57;;;;;;;;;;;14.30;99.90;;;;;;4952618;29;20406;-74
2021/07/13 12:19:25;;;;;;;;;;;14.20;99.90;;;;;;4932574;29;19962;-75
2021/07/13 12:21:52;;;;;;;;;;;14.20;99.90;;;;;;4932090;29;20353;-74
2021/07/13 12:24:30;;;;;;;;;;;14.30;99.90;;;;;;4933548;29;20393;-75
2021/07/13 12:26:58;;;;;;;;;;;14.40;99.90;;;;;;4931594;29;19931;-75
2021/07/13 12:29:34;;;;;;;;;;;14.40;99.90;;;;;;4932545;29;19933;-75
2021/07/13 12:32:02;;;;;;;;;;;14.50;99.90;;;;;;4933174;29;19962;-74
2021/07/13 12:34:29;;;;;;;;;;;14.60;99.90;;;;;;4922594;29;19970;-74
2021/07/13 12:37:06;;;;;;;;;;;14.70;99.90;;;;;;4916154;29;19978;-75
2021/07/13 12:39:34;;;;;;;;;;;14.80;99.90;;;;;;4919357;29;19962;-75
2021/07/13 12:42:09;;;;;;;;;;;14.90;99.90;;;;;;4904341;29;19935;-74
2021/07/13 12:44:52;;;;;;;;;;;15.00;99.90;;;;;;4916206;29;19986;-75
2021/07/13 12:47:19;;;;;;;;;;;15.10;99.90;;;;;;4918882;29;20350;-75
2021/07/13 12:50:07;;;;;;;;;;;15.30;99.90;;;;;;4902423;29;20490;-74
2021/07/13 12:52:35;;;;;;;;;;;15.40;99.90;;;;;;4916836;29;19973;-74
2021/07/13 12:55:07;;;;;;;;;;;15.50;99.90;;;;;;4922089;29;19934;-75
2021/07/13 12:57:49;;;;;;;;;;;15.60;99.90;;;;;;4925113;29;20398;-75
2021/07/13 13:00:28;;;;;;;;;;;15.80;99.90;;;;;;4926220;29;20017;-74
2021/07/13 13:03:04;;;;;;;;;;;15.90;99.90;;;;;;4919427;29;20028;-74
2021/07/13 13:05:37;;;;;;;;;;;16.10;99.90;;;;;;4927662;29;20382;-74
2021/07/13 13:08:06;;;;;;;;;;;16.40;99.90;;;;;;4923542;29;19965;-74
2021/07/13 13:10:36;;;;;;;;;;;16.50;99.90;;;;;;4927115;29;20030;-74
2021/07/13 13:13:04;;;;;;;;;;;16.40;99.90;;;;;;4926331;29;19933;-75
2021/07/13 13:15:30;;;;;;;;;;;16.20;99.90;;;;;;4908855;29;19931;-74
2021/07/13 13:18:03;;;;;;;;;;;16.10;99.90;;;;;;4912609;29;19974;-75
2021/07/13 13:20:35;;;;;;;;;;;16.10;99.90;;;;;;4918348;29;20022;-74
2021/07/13 13:23:05;;;;;;;;;;;16.00;99.90;;;;;;4900455;29;19985;-74
2021/07/13 13:25:32;;;;;;;;;;;15.90;99.90;;;;;;4917969;29;20083;-75
2021/07/13 13:28:04;;;;;;;;;;;15.80;99.90;;;;;;4915133;29;19991;-75
2021/07/13 13:30:31;;;;;;;;;;;15.80;99.90;;;;;;4920244;29;19931;-74
2021/07/13 13:32:58;;;;;;;;;;;15.70;99.90;;;;;;4920836;29;19963;-75
2021/07/13 13:36:10;;;;;;;;;;;15.60;99.90;;;;;;4901302;29;19979;-75
2021/07/13 13:40:56;;;;;;;;;;;15.50;99.90;;;;;;4919592;29;19987;-74
2021/07/13 13:43:23;;;;;;;;;;;15.40;99.90;;;;;;4914281;29;19927;-75
2021/07/13 13:45:50;;;;;;;;;;;15.40;99.90;;;;;;4917271;29;19958;-74
2021/07/13 13:48:17;;;;;;;;;;;15.30;99.90;;;;;;4914847;29;19931;-74
2021/07/13 13:50:44;;;;;;;;;;;15.30;99.90;;;;;;4899120;29;20013;-74
2021/07/13 13:53:15;;;;;;;;;;;15.20;99.90;;;;;;4900452;29;19927;-74
2021/07/13 13:55:42;;;;;;;;;;;15.10;99.90;;;;;;4900437;29;20046;-74
2021/07/13 13:58:14;;;;;;;;;;;15.10;99.90;;;;;;4917237;29;19927;-75
2021/07/13 14:00:40;;;;;;;;;;;15.10;99.90;;;;;;4917233;29;19959;-75
2021/07/13 14:03:07;;;;;;;;;;;15.10;99.90;;;;;;4899921;29;20449;-73
2021/07/13 14:05:39;;;;;;;;;;;15.10;99.90;;;;;;4921774;29;19931;-74
2021/07/13 14:08:10;;;;;;;;;;;15.00;99.90;;;;;;4914933;29;20516;-74
2021/07/13 14:10:37;;;;;;;;;;;15.00;99.90;;;;;;4915988;29;19931;-75
2021/07/13 14:13:04;;;;;;;;;;;14.90;99.90;;;;;;4916570;29;20350;-75
2021/07/13 14:15:35;;;;;;;;;;;15.00;99.90;;;;;;4900883;29;19927;-75
2021/07/13 14:18:07;;;;;;;;;;;15.00;99.90;;;;;;4915562;29;19927;-75
2021/07/13 14:20:39;;;;;;;;;;;15.00;99.90;;;;;;4915731;29;19935;-74
2021/07/13 14:23:05;;;;;;;;;;;15.00;99.90;;;;;;4922138;29;19973;-75
2021/07/13 14:25:37;;;;;;;;;;;15.10;99.90;;;;;;4910516;29;20136;-75
2021/07/13 14:28:09;;;;;;;;;;;15.10;99.90;;;;;;4904077;29;20334;-74
2021/07/13 14:30:41;;;;;;;;;;;15.00;99.90;;;;;;4925513;29;19930;-74
2021/07/13 14:33:12;;;;;;;;;;;15.00;99.90;;;;;;4904781;29;19935;-74
2021/07/13 14:35:44;;;;;;;;;;;15.00;99.90;;;;;;4909307;29;19927;-75
2021/07/13 14:38:12;;;;;;;;;;;15.00;99.90;;;;;;4907355;29;19965;-74